Terminal Aerodrome Forecast
Issued by NWS Hastings, NE

Home | Current Version | Previous Version | Text Only | Print | Product List | Glossary On
Versions: 1 2 3 4 5 6 7 8 9 10 11 12 13 14 15
000
FTUS45 KGID 302335
TAFEAR
TAF
KEAR 302335Z 3100/3124 15009KT P6SM FEW150
     FM310500 17011KT P6SM SCT150 WS005/20042KT
     FM311400 18013KT P6SM SCT150
     FM312300 VRB06KT P6SM VCTS SCT040CB BKN150
      AMD LTD TO CLD VIS AND WIND=

USA.gov is the U.S. government's official web portal to all federal, state and local government web resources and services.